Time;durP1;ratioP1;P1;durP2;ratioP2;P2;SDS_P1;SDS_P2;PMS_P1;PMS_P2;Temp;Humidity;BMP_temperature;BMP_pressure;BME280_temperature;BME280_humidity;BME280_pressure;Samples;Min_cycle;Max_cycle;Signal;HPM_P1;HPM_P2
2021/08/04 00:01:05;;;;;;;1.53;1.20;;;17.50;98.00;;;;;;6339013;22;20423;-68
2021/08/04 00:03:36;;;;;;;1.30;1.10;;;17.40;98.00;;;;;;6339403;22;20484;-68
2021/08/04 00:06:03;;;;;;;1.20;1.20;;;17.40;98.00;;;;;;6339666;22;20395;-68
2021/08/04 00:08:31;;;;;;;1.20;1.10;;;17.50;98.00;;;;;;6339390;22;20395;-68
2021/08/04 00:10:58;;;;;;;1.60;1.50;;;17.50;98.00;;;;;;6339526;22;20468;-68
2021/08/04 00:13:25;;;;;;;1.80;1.30;;;17.50;98.00;;;;;;6339492;22;20395;-68
2021/08/04 00:15:52;;;;;;;1.20;1.10;;;17.50;98.00;;;;;;6339323;22;20422;-68
2021/08/04 00:18:19;;;;;;;1.30;1.20;;;17.40;98.00;;;;;;6339415;22;20395;-68
2021/08/04 00:20:47;;;;;;;2.07;1.33;;;17.30;98.00;;;;;;6339086;22;20423;-68
2021/08/04 00:23:14;;;;;;;1.20;1.00;;;17.30;98.00;;;;;;6338953;22;20395;-68
2021/08/04 00:25:42;;;;;;;1.20;1.10;;;17.30;98.00;;;;;;6338755;22;20395;-68
2021/08/04 00:28:09;;;;;;;1.20;1.10;;;17.30;98.00;;;;;;6311070;22;20438;-68
2021/08/04 00:33:17;;;;;;;1.20;1.20;;;17.10;98.00;;;;;;6338099;22;20410;-68
2021/08/04 00:35:46;;;;;;;1.50;1.30;;;17.20;98.00;;;;;;6338760;22;20402;-68
2021/08/04 00:38:15;;;;;;;1.20;1.10;;;17.30;98.00;;;;;;6339380;22;20391;-68
2021/08/04 00:40:44;;;;;;;1.20;1.00;;;17.20;98.00;;;;;;6338398;22;20982;-68
2021/08/04 00:43:11;;;;;;;1.20;1.10;;;17.10;98.00;;;;;;6339045;22;20696;-68
2021/08/04 00:45:38;;;;;;;1.40;1.30;;;17.10;98.00;;;;;;6339073;22;20395;-68
2021/08/04 00:48:06;;;;;;;1.20;1.10;;;17.10;98.00;;;;;;6338801;22;20427;-67
2021/08/04 00:50:34;;;;;;;1.20;1.20;;;17.10;98.00;;;;;;6338524;22;20398;-68
2021/08/04 00:53:20;;;;;;;1.20;1.10;;;17.00;98.00;;;;;;6338936;22;20457;-68
2021/08/04 00:55:47;;;;;;;1.20;1.20;;;16.90;98.00;;;;;;6338655;22;20395;-68
2021/08/04 00:58:19;;;;;;;1.20;1.20;;;17.00;98.00;;;;;;6339111;22;20395;-68
2021/08/04 01:00:50;;;;;;;1.50;1.20;;;17.00;98.00;;;;;;6338604;22;20423;-68
2021/08/04 01:03:19;;;;;;;1.43;1.33;;;17.00;98.00;;;;;;6311269;22;20456;-68
2021/08/04 01:05:53;;;;;;;1.23;1.10;;;17.10;98.00;;;;;;6338464;22;20407;-68
2021/08/04 01:08:36;;;;;;;1.20;1.03;;;17.10;98.00;;;;;;6312729;22;20395;-68
2021/08/04 01:11:05;;;;;;;1.20;1.10;;;17.00;98.00;;;;;;6338159;22;20910;-68
2021/08/04 01:13:37;;;;;;;1.20;1.10;;;17.10;98.00;;;;;;6338893;22;20391;-68
2021/08/04 01:16:10;;;;;;;1.20;1.10;;;17.00;98.00;;;;;;6311556;22;20430;-68
2021/08/04 01:18:40;;;;;;;1.73;1.10;;;17.00;98.00;;;;;;6338601;22;20861;-68
2021/08/04 01:21:09;;;;;;;1.20;1.10;;;16.90;98.00;;;;;;6338912;22;20427;-68
2021/08/04 01:23:48;;;;;;;1.20;1.10;;;16.80;98.00;;;;;;6338914;22;20688;-68
2021/08/04 01:26:38;;;;;;;2.00;1.20;;;16.70;98.00;;;;;;6339001;22;20399;-68
2021/08/04 01:29:08;;;;;;;1.93;1.13;;;16.70;98.00;;;;;;6311157;22;20478;-68
2021/08/04 01:31:37;;;;;;;1.20;1.10;;;16.90;98.00;;;;;;6337901;22;20482;-68
2021/08/04 01:34:05;;;;;;;1.20;1.20;;;16.90;98.00;;;;;;6310826;22;20434;-68
2021/08/04 01:36:33;;;;;;;1.60;1.20;;;16.90;98.00;;;;;;6337985;22;20789;-68
2021/08/04 01:39:04;;;;;;;1.20;1.03;;;16.80;98.00;;;;;;6338017;22;20784;-68
2021/08/04 01:41:35;;;;;;;1.20;1.10;;;16.90;98.00;;;;;;6338460;22;20431;-68
2021/08/04 01:44:06;;;;;;;1.20;1.10;;;16.90;98.00;;;;;;6311131;22;20399;-68
2021/08/04 01:46:40;;;;;;;1.20;1.00;;;16.70;98.00;;;;;;6338570;22;20739;-68
2021/08/04 01:49:09;;;;;;;1.20;1.00;;;16.90;98.00;;;;;;6337885;22;20410;-68
2021/08/04 01:51:36;;;;;;;1.30;1.07;;;16.90;98.00;;;;;;6338303;22;20466;-68
2021/08/04 01:54:04;;;;;;;1.20;1.00;;;16.90;98.00;;;;;;6337945;22;20453;-68
2021/08/04 01:56:31;;;;;;;1.20;1.00;;;17.00;98.00;;;;;;6311142;22;20403;-68
2021/08/04 01:58:58;;;;;;;1.20;1.10;;;17.00;98.00;;;;;;6338102;22;20449;-68
2021/08/04 02:01:26;;;;;;;1.20;1.03;;;17.00;98.00;;;;;;6338045;22;20423;-68
2021/08/04 02:03:53;;;;;;;1.20;1.10;;;17.00;98.00;;;;;;6310808;22;20399;-68
2021/08/04 02:06:28;;;;;;;1.20;1.10;;;17.00;98.00;;;;;;6338108;22;21066;-68
2021/08/04 02:09:01;;;;;;;1.20;1.20;;;17.10;98.00;;;;;;6338118;22;20488;-68
2021/08/04 02:11:42;;;;;;;1.20;1.07;;;17.00;98.00;;;;;;6310571;22;20502;-68
2021/08/04 02:14:18;;;;;;;1.50;1.20;;;17.00;98.00;;;;;;6337842;22;20458;-68
2021/08/04 02:16:53;;;;;;;1.30;1.20;;;17.00;98.00;;;;;;6338067;22;20403;-68
2021/08/04 02:19:26;;;;;;;1.20;1.20;;;17.10;98.00;;;;;;6338172;22;20728;-68
2021/08/04 02:22:04;;;;;;;1.20;1.10;;;16.90;98.00;;;;;;6310469;22;20429;-68
2021/08/04 02:24:37;;;;;;;1.20;1.20;;;16.90;98.00;;;;;;6338017;22;20429;-68
2021/08/04 02:27:06;;;;;;;1.20;1.10;;;16.90;98.00;;;;;;6338257;22;20877;-68
2021/08/04 02:29:37;;;;;;;1.30;1.20;;;16.90;98.00;;;;;;6338146;22;20392;-68
2021/08/04 02:32:06;;;;;;;1.40;1.30;;;16.80;98.00;;;;;;6338077;22;20449;-68
2021/08/04 02:34:34;;;;;;;1.20;1.10;;;16.90;98.00;;;;;;6337681;22;20429;-68
2021/08/04 02:37:01;;;;;;;1.20;1.10;;;16.80;98.00;;;;;;6337939;22;20391;-68
2021/08/04 02:39:28;;;;;;;1.43;1.20;;;16.80;98.00;;;;;;6338099;22;20438;-68
2021/08/04 02:41:56;;;;;;;1.70;1.20;;;16.80;98.00;;;;;;6337993;22;20426;-68
2021/08/04 02:44:24;;;;;;;1.20;1.10;;;16.90;98.00;;;;;;6337773;22;20402;-68
2021/08/04 02:46:55;;;;;;;1.60;1.33;;;16.90;98.00;;;;;;6338103;22;20406;-67
2021/08/04 02:49:24;;;;;;;1.20;1.10;;;17.00;98.00;;;;;;6337539;22;20415;-68
2021/08/04 02:51:52;;;;;;;1.20;1.10;;;16.90;98.00;;;;;;6337772;22;20399;-68
2021/08/04 02:54:19;;;;;;;1.20;1.10;;;16.90;98.00;;;;;;6337954;22;20399;-68
2021/08/04 02:56:47;;;;;;;1.20;1.00;;;16.90;98.00;;;;;;6338774;22;20395;-68
2021/08/04 02:59:14;;;;;;;1.37;1.30;;;16.90;98.00;;;;;;6338125;22;20452;-68
2021/08/04 03:01:41;;;;;;;1.20;1.20;;;16.90;98.00;;;;;;6337607;22;20423;-68
2021/08/04 03:04:08;;;;;;;1.20;1.20;;;16.90;98.00;;;;;;6310358;22;20448;-68
2021/08/04 03:06:37;;;;;;;1.20;1.10;;;16.80;98.00;;;;;;6337903;22;20861;-68
2021/08/04 03:09:04;;;;;;;1.20;1.00;;;16.80;98.00;;;;;;6337893;22;20417;-68
2021/08/04 03:11:32;;;;;;;1.40;1.30;;;16.80;98.00;;;;;;6337841;22;20468;-68
2021/08/04 03:14:00;;;;;;;1.30;1.20;;;16.70;98.00;;;;;;6337377;22;20397;-68
2021/08/04 03:16:27;;;;;;;1.20;1.10;;;16.60;98.00;;;;;;6337753;22;20399;-68
2021/08/04 03:18:54;;;;;;;1.67;1.10;;;16.50;98.00;;;;;;6337716;22;20399;-68
2021/08/04 03:21:21;;;;;;;1.20;1.20;;;16.50;98.00;;;;;;6337711;22;20458;-68
2021/08/04 03:23:50;;;;;;;1.20;1.10;;;16.50;98.00;;;;;;6337396;22;20391;-68
2021/08/04 03:26:18;;;;;;;1.20;1.00;;;16.50;98.00;;;;;;6347678;22;20725;-68
2021/08/04 03:28:45;;;;;;;1.50;1.20;;;16.50;98.00;;;;;;6337551;22;20949;-68
2021/08/04 03:31:12;;;;;;;1.83;1.37;;;16.50;98.00;;;;;;6337171;22;20860;-68
2021/08/04 03:33:40;;;;;;;1.20;1.10;;;16.60;98.00;;;;;;6310001;22;20395;-68
2021/08/04 03:36:07;;;;;;;1.30;1.30;;;16.60;98.00;;;;;;6337363;22;20391;-68
2021/08/04 03:38:34;;;;;;;1.20;1.10;;;16.60;98.00;;;;;;6337659;22;20392;-68
2021/08/04 03:41:03;;;;;;;1.57;1.30;;;16.70;98.00;;;;;;6337468;22;20472;-68
2021/08/04 03:43:30;;;;;;;1.30;1.03;;;16.70;98.00;;;;;;6337777;22;20402;-68
2021/08/04 03:45:56;;;;;;;1.20;1.13;;;16.60;98.00;;;;;;6337580;22;20398;-68
2021/08/04 03:48:23;;;;;;;1.60;1.30;;;16.60;98.00;;;;;;6337238;22;20449;-68
2021/08/04 03:50:50;;;;;;;1.20;1.17;;;16.50;98.00;;;;;;6337238;22;20457;-68
2021/08/04 03:53:17;;;;;;;1.30;1.20;;;16.50;98.00;;;;;;6337616;22;20456;-68
2021/08/04 03:55:45;;;;;;;1.20;1.10;;;16.50;98.00;;;;;;6337520;22;20459;-68
2021/08/04 03:58:13;;;;;;;1.20;1.20;;;16.40;98.00;;;;;;6284131;22;20450;-68
2021/08/04 04:00:45;;;;;;;1.20;1.10;;;16.50;98.00;;;;;;6337514;22;20406;-68
2021/08/04 04:03:12;;;;;;;1.60;1.07;;;16.50;98.00;;;;;;6310181;22;20501;-68
2021/08/04 04:05:39;;;;;;;1.20;1.10;;;16.60;98.00;;;;;;6337521;22;20415;-68
2021/08/04 04:08:06;;;;;;;1.30;1.20;;;16.60;98.00;;;;;;6337657;22;20686;-68
2021/08/04 04:10:33;;;;;;;1.40;1.20;;;16.50;98.00;;;;;;6337275;22;20406;-68
2021/08/04 04:13:00;;;;;;;1.20;1.00;;;16.60;98.00;;;;;;6337575;22;20713;-68
2021/08/04 04:15:29;;;;;;;1.20;1.00;;;16.60;98.00;;;;;;6310011;22;20400;-68
2021/08/04 04:17:56;;;;;;;1.30;1.10;;;16.50;98.00;;;;;;6337962;22;20782;-68
2021/08/04 04:20:23;;;;;;;1.20;1.03;;;16.40;98.00;;;;;;6335704;22;20413;-68
2021/08/04 04:22:53;;;;;;;1.20;1.10;;;16.20;98.00;;;;;;6337329;22;20458;-68
2021/08/04 04:25:21;;;;;;;1.40;1.10;;;16.20;98.00;;;;;;6337409;22;20456;-68
2021/08/04 04:27:48;;;;;;;1.20;1.17;;;16.20;98.00;;;;;;6337759;22;20395;-68
2021/08/04 04:30:15;;;;;;;1.30;1.20;;;16.30;98.00;;;;;;6337351;22;20469;-68
2021/08/04 04:32:44;;;;;;;1.83;1.10;;;16.10;98.00;;;;;;6337066;22;20856;-68
2021/08/04 04:35:12;;;;;;;1.20;1.07;;;16.00;98.00;;;;;;6336838;22;20438;-68
2021/08/04 04:37:39;;;;;;;1.30;1.20;;;16.00;98.00;;;;;;6309730;22;20397;-68
2021/08/04 04:40:08;;;;;;;1.30;1.03;;;16.00;98.00;;;;;;6336887;22;20399;-68
2021/08/04 04:42:35;;;;;;;1.20;1.10;;;15.90;98.00;;;;;;6336697;22;20470;-68
2021/08/04 04:45:02;;;;;;;1.30;1.10;;;15.90;98.00;;;;;;6337019;22;20843;-67
2021/08/04 04:47:29;;;;;;;1.20;1.20;;;15.90;98.00;;;;;;6338945;22;20426;-68
2021/08/04 04:49:58;;;;;;;1.20;1.13;;;15.80;98.00;;;;;;6311402;22;20448;-68
2021/08/04 04:52:25;;;;;;;1.60;1.20;;;15.80;98.00;;;;;;6338621;22;20437;-68
2021/08/04 04:54:52;;;;;;;1.20;1.10;;;15.80;98.00;;;;;;6338555;22;20424;-68
2021/08/04 04:57:18;;;;;;;1.20;1.00;;;15.80;98.00;;;;;;6338656;22;20449;-68
2021/08/04 04:59:45;;;;;;;2.03;1.30;;;15.80;98.00;;;;;;6338594;22;20425;-68
2021/08/04 05:02:13;;;;;;;2.60;1.37;;;15.80;98.00;;;;;;6338525;22;20507;-68
2021/08/04 05:04:40;;;;;;;1.20;1.10;;;15.90;98.00;;;;;;6338720;22;21021;-68
2021/08/04 05:07:08;;;;;;;1.33;1.30;;;15.90;98.00;;;;;;6338677;22;20391;-68
2021/08/04 05:09:35;;;;;;;1.20;1.00;;;16.00;98.00;;;;;;6338851;22;20395;-68
2021/08/04 05:12:02;;;;;;;1.20;1.10;;;16.00;98.00;;;;;;6338569;22;20452;-68
2021/08/04 05:14:29;;;;;;;1.20;1.00;;;16.10;98.00;;;;;;6311553;22;20405;-68
2021/08/04 05:16:57;;;;;;;1.37;1.30;;;16.10;98.00;;;;;;6338584;22;20425;-68
2021/08/04 05:19:24;;;;;;;1.30;1.20;;;16.20;98.00;;;;;;6338959;22;20395;-68
2021/08/04 05:21:51;;;;;;;1.20;1.10;;;16.20;98.00;;;;;;6338788;22;20693;-68
2021/08/04 05:24:19;;;;;;;1.30;1.30;;;16.40;98.00;;;;;;6311677;22;20394;-68
2021/08/04 05:26:46;;;;;;;1.93;1.30;;;16.50;98.00;;;;;;6338818;22;20391;-68
2021/08/04 05:29:13;;;;;;;1.47;1.30;;;16.60;98.00;;;;;;6338720;22;20403;-68
2021/08/04 05:31:40;;;;;;;1.20;1.10;;;16.70;98.00;;;;;;6338585;22;20395;-68
2021/08/04 05:34:07;;;;;;;1.87;1.50;;;16.80;98.00;;;;;;6311656;22;20425;-68
2021/08/04 05:36:34;;;;;;;1.47;1.30;;;17.00;98.00;;;;;;6339036;22;20423;-68
2021/08/04 05:39:01;;;;;;;1.30;1.20;;;17.00;98.00;;;;;;6338756;22;20399;-68
2021/08/04 05:41:29;;;;;;;1.20;1.10;;;17.00;98.00;;;;;;6285264;22;20414;-68
2021/08/04 05:43:56;;;;;;;2.17;1.30;;;16.90;98.00;;;;;;6338758;22;20505;-68
2021/08/04 05:46:23;;;;;;;1.20;1.17;;;17.10;98.00;;;;;;6338614;22;20399;-68
2021/08/04 05:48:50;;;;;;;1.40;1.30;;;17.20;98.00;;;;;;6311096;22;20406;-67
2021/08/04 05:51:19;;;;;;;1.30;1.10;;;17.20;98.00;;;;;;6338624;22;20395;-68
2021/08/04 05:53:45;;;;;;;1.80;1.23;;;17.20;98.00;;;;;;6338526;22;20395;-68
2021/08/04 05:56:12;;;;;;;1.20;1.10;;;17.10;98.00;;;;;;6337916;22;20395;-68
2021/08/04 05:58:41;;;;;;;1.20;1.20;;;17.10;98.00;;;;;;6338388;22;20433;-68
2021/08/04 06:01:08;;;;;;;1.30;1.20;;;17.20;98.00;;;;;;6338433;22;20448;-68
2021/08/04 06:03:36;;;;;;;1.20;1.10;;;17.40;98.00;;;;;;6310458;22;20439;-68
2021/08/04 06:06:03;;;;;;;1.30;1.10;;;17.50;98.00;;;;;;6337988;22;20398;-68
2021/08/04 06:08:30;;;;;;;1.20;1.07;;;17.70;98.00;;;;;;6310374;22;20419;-68
2021/08/04 06:10:57;;;;;;;1.20;1.20;;;17.80;98.00;;;;;;6338045;22;20395;-68
2021/08/04 06:13:25;;;;;;;1.40;1.23;;;17.80;98.00;;;;;;6338147;22;20441;-68
2021/08/04 06:15:54;;;;;;;1.20;1.10;;;17.80;98.00;;;;;;6337922;22;20421;-68
2021/08/04 06:18:23;;;;;;;2.63;1.87;;;17.90;98.00;;;;;;6338260;22;20403;-68
2021/08/04 06:20:51;;;;;;;1.40;1.27;;;18.00;98.00;;;;;;6338168;22;20781;-68
2021/08/04 06:23:18;;;;;;;1.20;1.10;;;17.90;98.00;;;;;;6337783;22;20963;-68
2021/08/04 06:25:45;;;;;;;1.20;1.10;;;17.80;98.00;;;;;;6310371;22;20425;-68
2021/08/04 06:28:12;;;;;;;1.40;1.30;;;17.70;98.00;;;;;;6337843;22;20400;-68
2021/08/04 06:30:40;;;;;;;1.57;1.33;;;17.60;98.00;;;;;;6338156;22;20391;-69
2021/08/04 06:33:09;;;;;;;1.20;1.10;;;17.60;98.00;;;;;;6311015;22;20402;-69
2021/08/04 06:35:37;;;;;;;1.93;1.50;;;17.70;98.00;;;;;;6337745;22;20838;-68
2021/08/04 06:38:04;;;;;;;1.67;1.40;;;17.70;98.00;;;;;;6337946;22;20438;-68
2021/08/04 06:40:31;;;;;;;1.47;1.37;;;17.90;98.00;;;;;;6337936;22;20509;-68
2021/08/04 06:42:58;;;;;;;1.20;1.20;;;18.00;98.00;;;;;;6337891;22;20462;-69
2021/08/04 06:45:25;;;;;;;1.87;1.57;;;18.10;98.00;;;;;;6338040;22;20395;-68
2021/08/04 06:47:52;;;;;;;1.40;1.30;;;18.20;98.00;;;;;;6337995;22;20457;-68
2021/08/04 06:50:20;;;;;;;1.20;1.00;;;18.40;98.00;;;;;;6337986;22;20713;-68
2021/08/04 06:52:47;;;;;;;1.20;1.17;;;18.40;98.00;;;;;;6338016;22;20744;-68
2021/08/04 06:55:15;;;;;;;1.53;1.20;;;18.30;98.00;;;;;;6337735;22;20453;-68
2021/08/04 06:57:42;;;;;;;1.37;1.20;;;18.40;98.00;;;;;;6337052;22;20411;-68
2021/08/04 07:00:11;;;;;;;1.30;1.27;;;18.30;98.00;;;;;;6338026;22;20402;-68
2021/08/04 07:02:38;;;;;;;1.20;1.07;;;18.30;98.00;;;;;;6337427;22;20496;-68
2021/08/04 07:05:06;;;;;;;1.20;1.10;;;18.40;98.00;;;;;;6337705;22;20437;-68
2021/08/04 07:07:35;;;;;;;1.20;1.10;;;18.40;98.00;;;;;;6338211;22;20702;-68
2021/08/04 07:10:02;;;;;;;1.20;1.10;;;18.50;98.00;;;;;;6337035;22;20873;-68
2021/08/04 07:12:29;;;;;;;1.20;1.10;;;18.70;98.00;;;;;;6337557;22;20395;-68
2021/08/04 07:14:56;;;;;;;1.20;1.10;;;18.60;98.00;;;;;;6337492;22;20430;-68
2021/08/04 07:17:23;;;;;;;1.30;1.20;;;18.80;98.00;;;;;;6337653;22;20427;-68
2021/08/04 07:19:50;;;;;;;1.20;1.20;;;18.80;98.00;;;;;;6309634;22;20948;-68
2021/08/04 07:22:24;;;;;;;1.20;1.20;;;18.80;98.00;;;;;;6337542;22;20854;-68
2021/08/04 07:24:53;;;;;;;1.30;1.20;;;18.90;98.00;;;;;;6336333;22;20425;-69
2021/08/04 07:27:21;;;;;;;1.30;1.20;;;18.80;98.00;;;;;;6335623;22;20460;-69
2021/08/04 07:29:48;;;;;;;1.47;1.40;;;19.00;98.00;;;;;;6335913;22;20399;-69
2021/08/04 07:32:15;;;;;;;1.20;1.10;;;19.00;98.00;;;;;;6335874;22;20395;-70
2021/08/04 07:34:42;;;;;;;1.40;1.13;;;19.10;98.00;;;;;;6335800;22;20431;-69
2021/08/04 07:37:10;;;;;;;1.93;1.20;;;19.00;98.00;;;;;;6336312;22;20778;-69
2021/08/04 07:39:37;;;;;;;1.20;1.00;;;19.10;98.00;;;;;;6336025;22;20391;-71
2021/08/04 07:42:05;;;;;;;1.30;1.20;;;19.20;98.00;;;;;;6336108;22;20767;-72
2021/08/04 07:44:32;;;;;;;1.47;1.07;;;19.30;98.00;;;;;;6307989;22;20451;-71
2021/08/04 07:46:59;;;;;;;1.20;1.20;;;19.30;98.00;;;;;;6335912;22;20406;-71
2021/08/04 07:49:26;;;;;;;1.20;1.10;;;19.30;98.00;;;;;;6335169;22;20460;-71
2021/08/04 07:51:55;;;;;;;1.40;1.20;;;19.40;98.00;;;;;;6308128;22;20865;-72
2021/08/04 07:54:22;;;;;;;1.60;1.50;;;19.40;98.00;;;;;;6335776;22;20395;-72
2021/08/04 07:56:49;;;;;;;1.30;1.10;;;19.40;98.00;;;;;;6308461;22;20866;-72
2021/08/04 07:59:17;;;;;;;1.20;1.10;;;19.30;98.00;;;;;;6335834;22;20399;-72
2021/08/04 08:01:45;;;;;;;1.40;1.27;;;19.10;98.00;;;;;;6335700;22;20427;-72
2021/08/04 08:04:15;;;;;;;1.43;1.20;;;19.10;98.00;;;;;;6336164;22;20964;-73
2021/08/04 08:06:42;;;;;;;1.53;1.20;;;19.10;98.00;;;;;;6336094;22;20770;-72
2021/08/04 08:09:11;;;;;;;1.77;1.20;;;19.00;98.00;;;;;;6336391;22;20735;-73
2021/08/04 08:11:38;;;;;;;1.20;1.00;;;19.10;98.00;;;;;;6335873;22;20399;-72
2021/08/04 08:14:06;;;;;;;1.40;1.30;;;19.20;98.00;;;;;;6336268;22;20465;-72
2021/08/04 08:16:34;;;;;;;2.17;1.50;;;19.30;98.00;;;;;;6336047;22;20400;-72
2021/08/04 08:19:01;;;;;;;1.73;1.20;;;19.30;98.00;;;;;;6336284;22;20699;-72
2021/08/04 08:21:28;;;;;;;1.20;1.10;;;19.30;98.00;;;;;;6337011;22;20995;-72
2021/08/04 08:23:55;;;;;;;1.30;1.10;;;19.30;98.00;;;;;;6338003;22;20426;-72
2021/08/04 08:26:24;;;;;;;1.30;1.10;;;19.30;98.00;;;;;;6336972;22;20920;-72
2021/08/04 08:28:51;;;;;;;1.20;1.10;;;19.20;98.00;;;;;;6337669;22;20410;-73
2021/08/04 08:31:20;;;;;;;1.60;1.27;;;19.20;98.00;;;;;;6336354;22;20430;-72
2021/08/04 08:33:48;;;;;;;1.30;1.23;;;19.20;98.00;;;;;;6307338;22;20778;-73
2021/08/04 08:36:17;;;;;;;1.30;1.20;;;19.20;98.00;;;;;;6336729;22;20874;-72
2021/08/04 08:38:44;;;;;;;1.20;1.10;;;19.20;98.00;;;;;;6337230;22;20414;-72
2021/08/04 08:41:12;;;;;;;1.20;1.00;;;19.20;98.00;;;;;;6337095;22;20456;-73
2021/08/04 08:43:38;;;;;;;1.20;1.00;;;19.30;98.00;;;;;;6337195;22;20474;-72
2021/08/04 08:46:06;;;;;;;1.20;1.10;;;19.40;98.00;;;;;;6337585;22;20442;-73
2021/08/04 08:48:33;;;;;;;1.40;1.10;;;19.40;98.00;;;;;;6336750;22;20418;-70
2021/08/04 08:51:02;;;;;;;1.50;1.20;;;19.70;98.00;;;;;;6336485;22;20477;-71
2021/08/04 08:53:29;;;;;;;1.87;1.33;;;19.80;98.00;;;;;;6337545;22;20429;-71
2021/08/04 08:55:57;;;;;;;1.30;1.23;;;20.00;98.00;;;;;;6337194;22;20399;-72
2021/08/04 08:58:24;;;;;;;1.20;1.10;;;19.90;98.00;;;;;;6337191;22;20929;-72
2021/08/04 09:00:51;;;;;;;1.20;1.10;;;20.00;98.00;;;;;;6337246;22;20691;-71
2021/08/04 09:03:19;;;;;;;1.30;1.27;;;19.90;98.00;;;;;;6337219;22;20438;-71
2021/08/04 09:05:51;;;;;;;1.20;1.00;;;19.90;98.00;;;;;;6337317;22;20494;-72
2021/08/04 09:08:28;;;;;;;1.20;1.10;;;19.80;98.00;;;;;;6339494;22;20392;-72
2021/08/04 09:10:57;;;;;;;1.20;1.10;;;19.80;98.00;;;;;;6334687;22;20417;-72
2021/08/04 09:13:32;;;;;;;1.20;1.10;;;19.80;98.00;;;;;;6337559;22;20387;-72
2021/08/04 09:16:06;;;;;;;1.20;1.10;;;19.90;98.00;;;;;;6337169;22;20402;-72
2021/08/04 09:18:40;;;;;;;1.30;1.20;;;20.10;98.00;;;;;;6337222;22;20395;-72
2021/08/04 09:21:09;;;;;;;1.20;1.10;;;20.30;98.00;;;;;;6336934;22;20405;-72
2021/08/04 09:23:45;;;;;;;1.47;1.23;;;20.40;98.00;;;;;;6337211;22;20460;-72
2021/08/04 09:26:13;;;;;;;1.40;1.27;;;20.50;98.00;;;;;;6336856;22;20402;-72
2021/08/04 09:28:56;;;;;;;1.40;1.20;;;20.50;98.00;;;;;;6337047;22;20484;-72
2021/08/04 09:31:43;;;;;;;1.70;1.20;;;20.60;98.00;;;;;;6336352;22;20395;-72
2021/08/04 09:34:29;;;;;;;1.30;1.20;;;21.00;98.00;;;;;;6337366;22;20520;-72
2021/08/04 09:37:00;;;;;;;1.20;1.10;;;21.40;98.00;;;;;;6337362;22;20483;-72
2021/08/04 09:39:28;;;;;;;1.40;1.20;;;21.60;97.70;;;;;;6337191;22;20408;-72
2021/08/04 09:41:55;;;;;;;1.20;1.10;;;21.70;96.40;;;;;;6337281;22;20452;-72
2021/08/04 09:44:22;;;;;;;1.70;1.60;;;21.90;95.90;;;;;;6336936;22;20485;-73
2021/08/04 09:46:49;;;;;;;1.43;1.10;;;21.80;95.40;;;;;;6337349;22;20422;-71
2021/08/04 09:49:18;;;;;;;4.33;1.40;;;21.60;95.70;;;;;;6336179;22;20395;-71
2021/08/04 09:51:47;;;;;;;1.40;1.40;;;21.20;94.30;;;;;;6336473;22;20425;-71
2021/08/04 09:54:16;;;;;;;1.40;1.30;;;20.90;95.80;;;;;;6309355;22;20402;-71
2021/08/04 09:57:10;;;;;;;1.50;1.20;;;20.80;97.00;;;;;;6337364;22;20858;-71
2021/08/04 09:59:37;;;;;;;1.40;1.20;;;20.90;96.50;;;;;;6335859;22;21036;-71
2021/08/04 10:02:05;;;;;;;1.57;1.30;;;21.00;98.00;;;;;;6336477;22;20426;-71
2021/08/04 10:04:33;;;;;;;1.20;1.10;;;21.20;98.00;;;;;;6336906;22;20478;-73
2021/08/04 10:07:07;;;;;;;1.63;1.20;;;21.30;96.80;;;;;;6336790;22;20397;-73
2021/08/04 10:09:35;;;;;;;2.00;1.30;;;21.30;98.00;;;;;;6337013;22;20471;-70
2021/08/04 10:12:03;;;;;;;1.40;1.30;;;21.30;95.20;;;;;;6336364;22;21060;-71
2021/08/04 10:14:32;;;;;;;1.30;1.10;;;21.30;95.10;;;;;;6336839;22;20452;-70
2021/08/04 10:17:00;;;;;;;1.20;1.10;;;21.40;95.10;;;;;;6336712;22;20857;-71
2021/08/04 10:19:31;;;;;;;1.20;1.20;;;21.40;95.20;;;;;;6336716;22;20399;-71
2021/08/04 10:21:58;;;;;;;1.30;1.30;;;21.30;95.80;;;;;;6336155;22;20399;-71
2021/08/04 10:24:25;;;;;;;1.30;1.30;;;21.10;97.70;;;;;;6336814;22;20427;-70
2021/08/04 10:26:54;;;;;;;1.40;1.23;;;21.00;98.00;;;;;;6336250;22;20395;-70
2021/08/04 10:29:33;;;;;;;1.30;1.10;;;21.00;98.00;;;;;;6336958;22;20456;-69
2021/08/04 10:32:01;;;;;;;1.50;1.40;;;21.20;98.00;;;;;;6336037;22;20456;-70
2021/08/04 10:34:29;;;;;;;1.30;1.20;;;21.30;95.30;;;;;;6336991;22;20426;-71
2021/08/04 10:36:57;;;;;;;1.20;1.20;;;21.30;97.30;;;;;;6335892;22;20421;-70
2021/08/04 10:39:26;;;;;;;1.87;1.30;;;21.30;96.70;;;;;;6336671;22;20398;-71
2021/08/04 10:42:12;;;;;;;1.20;1.20;;;21.10;96.20;;;;;;6346266;22;20852;-71
2021/08/04 10:44:40;;;;;;;1.53;1.30;;;20.80;97.10;;;;;;6336382;22;20423;-71
2021/08/04 10:47:26;;;;;;;1.27;1.20;;;20.80;97.60;;;;;;6336816;22;21030;-72
2021/08/04 10:50:09;;;;;;;1.30;1.20;;;20.90;98.00;;;;;;6335232;22;20395;-71
2021/08/04 10:53:05;;;;;;;1.50;1.20;;;21.20;98.00;;;;;;6336805;22;20426;-71
2021/08/04 10:55:54;;;;;;;1.40;1.20;;;21.70;98.00;;;;;;6336550;22;20422;-71
2021/08/04 10:58:21;;;;;;;1.20;1.10;;;22.10;95.40;;;;;;6336760;22;20403;-70
2021/08/04 11:01:15;;;;;;;1.30;1.20;;;22.40;94.70;;;;;;6336111;22;20460;-72
2021/08/04 11:03:46;;;;;;;1.30;1.20;;;22.70;93.80;;;;;;6336046;22;20516;-73
2021/08/04 11:06:14;;;;;;;1.33;1.17;;;23.00;92.90;;;;;;6336671;22;20746;-71
2021/08/04 11:08:46;;;;;;;1.30;1.20;;;23.10;93.00;;;;;;6336715;22;20452;-71
2021/08/04 11:11:46;;;;;;;1.20;1.20;;;23.00;93.10;;;;;;6335765;22;20434;-72
2021/08/04 11:14:37;;;;;;;1.27;1.10;;;22.50;92.50;;;;;;6336270;22;20419;-72
2021/08/04 11:17:07;;;;;;;1.27;1.10;;;22.10;93.10;;;;;;6336353;22;20407;-70
2021/08/04 11:20:10;;;;;;;1.20;1.10;;;22.10;92.90;;;;;;6336393;22;20445;-71
2021/08/04 11:22:50;;;;;;;1.20;1.10;;;22.10;93.00;;;;;;6336100;22;20484;-71
2021/08/04 11:25:47;;;;;;;1.40;1.10;;;22.10;94.60;;;;;;6336215;22;20423;-70
2021/08/04 11:28:18;;;;;;;1.50;1.30;;;22.20;94.40;;;;;;6209830;23;20756;-70
2021/08/04 11:30:54;;;;;;;1.20;1.20;;;22.10;94.90;;;;;;6309932;22;20816;-71
2021/08/04 11:33:35;;;;;;;1.20;1.20;;;22.20;96.40;;;;;;6336203;22;20394;-71
2021/08/04 11:36:18;;;;;;;1.30;1.23;;;22.40;95.10;;;;;;6336344;22;20787;-71
2021/08/04 11:38:51;;;;;;;1.83;1.40;;;22.60;93.30;;;;;;6336638;22;20456;-71
2021/08/04 11:41:27;;;;;;;1.50;1.20;;;22.70;94.30;;;;;;6308174;22;20419;-71
2021/08/04 11:44:00;;;;;;;1.20;1.20;;;22.60;93.80;;;;;;6309511;22;20971;-71
2021/08/04 11:46:39;;;;;;;1.27;1.10;;;22.60;93.70;;;;;;6336038;22;20478;-71
2021/08/04 11:49:09;;;;;;;1.20;1.20;;;22.60;93.60;;;;;;6336076;22;20395;-71
2021/08/04 11:51:41;;;;;;;1.20;1.10;;;22.60;93.40;;;;;;6307475;22;20446;-70
2021/08/04 11:54:10;;;;;;;1.60;1.30;;;22.70;93.10;;;;;;6309266;22;20403;-71
2021/08/04 11:56:44;;;;;;;1.20;1.07;;;22.50;94.70;;;;;;6338145;22;20463;-75
2021/08/04 11:59:11;;;;;;;1.20;1.20;;;22.40;94.40;;;;;;6338063;22;20395;-75
2021/08/04 12:01:38;;;;;;;1.90;1.50;;;22.40;93.70;;;;;;6337994;22;20440;-74
2021/08/04 12:04:07;;;;;;;1.30;1.20;;;22.30;93.70;;;;;;6338479;22;20811;-73
2021/08/04 12:06:39;;;;;;;1.67;1.20;;;22.40;94.70;;;;;;6338027;22;20407;-71
2021/08/04 12:09:25;;;;;;;1.40;1.20;;;22.50;92.10;;;;;;6337999;22;20406;-72
2021/08/04 12:11:52;;;;;;;1.30;1.20;;;22.80;92.60;;;;;;6337229;22;20437;-72
2021/08/04 12:14:20;;;;;;;1.30;1.10;;;22.90;94.50;;;;;;6337530;22;20425;-71
2021/08/04 12:16:50;;;;;;;1.40;1.30;;;23.00;92.70;;;;;;6338125;22;20459;-71
2021/08/04 12:19:38;;;;;;;1.20;1.10;;;23.10;91.50;;;;;;6338090;22;20403;-74
2021/08/04 12:22:10;;;;;;;1.20;1.20;;;23.20;92.20;;;;;;6337684;22;20399;-73
2021/08/04 12:24:46;;;;;;;1.20;1.10;;;23.30;91.00;;;;;;6337829;22;20423;-73
2021/08/04 12:27:13;;;;;;;1.87;1.30;;;23.40;91.20;;;;;;6337296;22;20395;-72
2021/08/04 12:29:40;;;;;;;1.40;1.30;;;23.40;89.50;;;;;;6337442;22;20931;-73
2021/08/04 12:32:20;;;;;;;1.20;1.20;;;23.30;90.00;;;;;;6337718;22;20448;-72
2021/08/04 12:34:58;;;;;;;1.20;1.10;;;23.20;89.40;;;;;;6337731;22;20387;-72
2021/08/04 12:37:28;;;;;;;1.30;1.13;;;23.10;91.80;;;;;;6337985;22;20761;-72
2021/08/04 12:40:03;;;;;;;1.20;1.20;;;23.00;91.20;;;;;;6337406;22;20395;-73
2021/08/04 12:42:30;;;;;;;1.37;1.30;;;22.90;90.90;;;;;;6310125;22;20424;-73
2021/08/04 12:45:18;;;;;;;1.30;1.10;;;22.90;91.20;;;;;;6337016;22;20423;-72
2021/08/04 12:47:51;;;;;;;1.40;1.10;;;23.10;91.70;;;;;;6337605;22;20423;-71
2021/08/04 12:50:18;;;;;;;1.30;1.20;;;23.20;94.60;;;;;;6336516;22;20433;-71
2021/08/04 12:52:48;;;;;;;1.20;1.10;;;23.30;92.10;;;;;;6337436;22;20395;-71
2021/08/04 12:55:17;;;;;;;1.70;1.37;;;23.40;93.00;;;;;;6337722;22;20403;-70
2021/08/04 12:57:44;;;;;;;1.20;1.20;;;23.30;91.10;;;;;;6337337;22;20478;-72
2021/08/04 13:00:30;;;;;;;1.20;1.10;;;23.30;91.10;;;;;;6336931;22;20460;-70
2021/08/04 13:02:59;;;;;;;2.00;1.37;;;23.00;90.20;;;;;;6337210;22;20476;-70
2021/08/04 13:05:26;;;;;;;1.40;1.20;;;23.00;92.30;;;;;;6337193;22;20527;-70